createdAt,value
2018-08-17T00:00:43.123Z,98046.27
2018-08-17T00:03:11.512Z,98048.12
2018-08-17T00:05:39.906Z,98049.63
2018-08-17T00:08:08.235Z,98048.97
2018-08-17T00:10:36.717Z,98046.66
2018-08-17T00:13:05.342Z,98050.16
2018-08-17T00:15:33.721Z,98048.46
2018-08-17T00:18:02.006Z,98048.83
2018-08-17T00:20:30.466Z,98048.33
2018-08-17T00:22:59.391Z,98051.49
2018-08-17T00:25:27.844Z,98056.54
2018-08-17T00:27:56.265Z,98049.83
2018-08-17T00:30:24.705Z,98046.96
2018-08-17T00:32:53.132Z,98048.30
2018-08-17T00:35:21.469Z,98046.95
2018-08-17T00:37:49.817Z,98040.41
2018-08-17T00:40:18.228Z,98039.56
2018-08-17T00:42:46.609Z,98036.03
2018-08-17T00:45:14.974Z,98041.42
2018-08-17T00:47:43.339Z,98042.27
2018-08-17T00:50:11.742Z,98040.23
2018-08-17T00:52:40.110Z,98032.20
2018-08-17T00:55:08.565Z,98023.47
2018-08-17T00:57:36.934Z,98032.00
2018-08-17T01:00:05.904Z,98040.41
2018-08-17T01:02:34.243Z,98039.07
2018-08-17T01:05:02.624Z,98031.48
2018-08-17T01:07:31.054Z,98024.63
2018-08-17T01:09:59.436Z,98033.80
2018-08-17T01:12:28.655Z,98041.84
2018-08-17T01:14:57.480Z,98041.55
2018-08-17T01:17:25.984Z,98034.67
2018-08-17T01:19:54.450Z,98038.88
2018-08-17T01:22:22.912Z,98040.39
2018-08-17T01:24:51.498Z,98033.80
2018-08-17T01:27:19.859Z,98030.64
2018-08-17T01:29:48.154Z,98028.48
2018-08-17T01:32:16.473Z,98023.53
2018-08-17T01:34:44.884Z,98026.21
2018-08-17T01:37:13.192Z,98024.83
2018-08-17T01:39:41.549Z,98029.70
2018-08-17T01:42:09.889Z,98023.35
2018-08-17T01:44:38.233Z,98021.97
2018-08-17T01:47:06.857Z,98022.81
2018-08-17T01:49:35.219Z,98015.09
2018-08-17T01:52:03.706Z,98013.60
2018-08-17T01:54:32.291Z,98015.62
2018-08-17T01:57:00.736Z,98015.58
2018-08-17T01:59:29.463Z,98020.77
2018-08-17T02:01:57.868Z,98017.28
2018-08-17T02:04:26.449Z,98017.59
2018-08-17T02:06:54.895Z,98016.91
2018-08-17T02:09:23.192Z,98014.23
2018-08-17T02:11:51.553Z,98018.44
2018-08-17T02:14:19.908Z,98021.98
2018-08-17T02:16:48.291Z,98011.95
2018-08-17T02:19:16.764Z,98016.61
2018-08-17T02:21:45.273Z,98014.55
2018-08-17T02:24:13.642Z,98015.53
2018-08-17T02:26:42.011Z,98015.27
2018-08-17T02:29:10.602Z,98008.69
2018-08-17T02:31:39.017Z,98015.22
2018-08-17T02:34:07.346Z,98006.68
2018-08-17T02:36:35.718Z,98002.83
2018-08-17T02:39:05.550Z,98007.34
2018-08-17T02:41:34.007Z,98010.20
2018-08-17T02:44:02.345Z,97995.64
2018-08-17T02:46:30.709Z,97990.95
2018-08-17T02:48:59.190Z,97995.28
2018-08-17T02:51:27.553Z,98000.98
2018-08-17T02:53:55.939Z,97998.54
2018-08-17T02:56:24.451Z,97994.13
2018-08-17T02:58:52.895Z,97988.92
2018-08-17T03:01:21.345Z,97994.22
2018-08-17T03:03:49.793Z,97992.03
2018-08-17T03:06:18.201Z,97997.21
2018-08-17T03:08:46.625Z,97996.52
2018-08-17T03:11:15.035Z,98001.88
2018-08-17T03:13:43.413Z,97997.70
2018-08-17T03:16:11.731Z,97995.94
2018-08-17T03:18:40.134Z,97995.22
2018-08-17T03:21:08.706Z,98000.00
2018-08-17T03:23:37.101Z,98004.39
2018-08-17T03:26:05.489Z,97998.96
2018-08-17T03:28:33.984Z,98000.02
2018-08-17T03:31:02.392Z,98001.16
2018-08-17T03:33:30.804Z,98002.81
2018-08-17T03:35:59.156Z,98004.29
2018-08-17T03:38:27.549Z,98001.87
2018-08-17T03:40:55.922Z,98006.07
2018-08-17T03:43:24.307Z,98005.91
2018-08-17T03:45:53.232Z,98009.66
2018-08-17T03:48:21.567Z,98014.54
2018-08-17T03:50:50.704Z,98014.39
2018-08-17T03:53:19.108Z,98013.85
2018-08-17T03:55:47.512Z,98019.20
2018-08-17T03:58:15.958Z,98021.77
2018-08-17T04:00:44.360Z,98022.52
2018-08-17T04:03:12.665Z,98026.97
2018-08-17T04:05:40.958Z,98026.70
2018-08-17T04:08:09.367Z,98030.50
2018-08-17T04:10:37.788Z,98029.02
2018-08-17T04:13:06.590Z,98031.95
2018-08-17T04:15:35.090Z,98039.45
2018-08-17T04:18:03.543Z,98039.01
2018-08-17T04:20:32.894Z,98041.36
2018-08-17T04:23:01.248Z,98046.98
2018-08-17T04:25:29.790Z,98048.14
2018-08-17T04:27:58.148Z,98043.90
2018-08-17T04:30:26.537Z,98049.53
2018-08-17T04:32:54.952Z,98043.17
2018-08-17T04:35:23.631Z,98046.39
2018-08-17T04:37:51.984Z,98047.84
2018-08-17T04:40:20.346Z,98050.75
2018-08-17T04:42:48.666Z,98054.73
2018-08-17T04:45:17.005Z,98047.23
2018-08-17T04:47:45.339Z,98050.84
2018-08-17T04:50:13.675Z,98053.75
2018-08-17T04:52:42.123Z,98050.97
2018-08-17T04:55:10.586Z,98057.10
2018-08-17T04:57:38.946Z,98061.13
2018-08-17T05:00:08.693Z,98056.13
2018-08-17T05:02:37.496Z,98066.37
2018-08-17T05:05:06.519Z,98062.17
2018-08-17T05:07:35.865Z,98061.61
2018-08-17T05:10:04.836Z,98065.15
2018-08-17T05:12:33.250Z,98060.44
2018-08-17T05:15:01.680Z,98059.69
2018-08-17T05:17:30.844Z,98059.68
2018-08-17T05:19:59.251Z,98064.56
2018-08-17T05:22:27.602Z,98058.19
2018-08-17T05:24:56.048Z,98068.93
2018-08-17T05:27:24.412Z,98071.66
2018-08-17T05:29:52.743Z,98071.55
2018-08-17T05:32:21.090Z,98071.28
2018-08-17T05:34:49.490Z,98071.98
2018-08-17T05:37:17.811Z,98075.20
2018-08-17T05:39:46.108Z,98074.83
2018-08-17T05:42:14.507Z,98073.96
2018-08-17T05:44:42.871Z,98076.61
2018-08-17T05:47:11.174Z,98077.72
2018-08-17T05:49:39.536Z,98075.10
2018-08-17T05:52:08.043Z,98077.23
2018-08-17T05:54:36.396Z,98082.02
2018-08-17T05:57:04.774Z,98084.03
2018-08-17T05:59:33.168Z,98081.69
2018-08-17T06:02:01.680Z,98089.02
2018-08-17T06:04:29.997Z,98087.59
2018-08-17T06:06:58.369Z,98090.49
2018-08-17T06:09:26.791Z,98089.27
2018-08-17T06:11:55.210Z,98084.70
2018-08-17T06:14:23.537Z,98094.64
2018-08-17T06:16:52.147Z,98094.89
2018-08-17T06:19:20.511Z,98097.88
2018-08-17T06:21:49.002Z,98099.02
2018-08-17T06:24:17.409Z,98094.84
2018-08-17T06:26:45.769Z,98100.02
2018-08-17T06:29:14.096Z,98101.11
2018-08-17T06:31:42.551Z,98105.00
2018-08-17T06:34:10.898Z,98095.08
2018-08-17T06:36:39.280Z,98103.31
2018-08-17T06:39:09.799Z,98101.31
2018-08-17T06:41:38.656Z,98103.89
2018-08-17T06:44:07.128Z,98109.78
2018-08-17T06:46:35.651Z,98114.29
2018-08-17T06:49:04.085Z,98116.09
2018-08-17T06:51:32.509Z,98115.66
2018-08-17T06:54:00.805Z,98109.70
2018-08-17T06:56:29.178Z,98113.26
2018-08-17T06:58:57.634Z,98112.19
2018-08-17T07:01:26.096Z,98110.71
2018-08-17T07:03:54.485Z,98113.36
2018-08-17T07:06:23.536Z,98120.77
2018-08-17T07:08:51.965Z,98114.84
2018-08-17T07:11:20.409Z,98116.64
2018-08-17T07:13:48.838Z,98121.72
2018-08-17T07:16:17.173Z,98114.75
2018-08-17T07:18:45.482Z,98121.44
2018-08-17T07:21:13.880Z,98123.57
2018-08-17T07:23:42.214Z,98124.45
2018-08-17T07:26:10.614Z,98125.13
2018-08-17T07:28:39.024Z,98125.56
2018-08-17T07:31:07.374Z,98124.92
2018-08-17T07:33:35.758Z,98128.66
2018-08-17T07:36:04.256Z,98133.10
2018-08-17T07:38:32.582Z,98131.97
2018-08-17T07:41:00.952Z,98132.54
2018-08-17T07:43:29.322Z,98133.34
2018-08-17T07:45:57.652Z,98135.71
2018-08-17T07:48:26.084Z,98140.03
2018-08-17T07:50:54.513Z,98133.44
2018-08-17T07:53:22.898Z,98140.77
2018-08-17T07:55:51.250Z,98136.66
2018-08-17T07:58:19.598Z,98144.53
2018-08-17T08:00:48.875Z,98145.73
2018-08-17T08:03:17.229Z,98142.92
2018-08-17T08:05:45.586Z,98144.99
2018-08-17T08:08:13.971Z,98150.11
2018-08-17T08:10:42.893Z,98152.71
2018-08-17T08:13:11.334Z,98158.30
2018-08-17T08:15:39.709Z,98154.52
2018-08-17T08:18:08.164Z,98157.24
2018-08-17T08:20:38.432Z,98163.39
2018-08-17T08:23:18.088Z,98158.70
2018-08-17T08:25:46.529Z,98168.36
2018-08-17T08:28:14.892Z,98165.11
2018-08-17T08:30:43.469Z,98171.11
2018-08-17T08:33:12.370Z,98166.87
2018-08-17T08:35:40.804Z,98166.55
2018-08-17T08:38:09.444Z,98168.02
2018-08-17T08:40:38.047Z,98170.33
2018-08-17T08:43:07.597Z,98168.42
2018-08-17T08:45:35.970Z,98171.69
2018-08-17T08:48:05.643Z,98170.09
2018-08-17T08:50:33.996Z,98181.28
2018-08-17T08:53:02.369Z,98180.48
2018-08-17T08:55:31.442Z,98180.76
2018-08-17T08:58:00.649Z,98181.81
2018-08-17T09:00:29.148Z,98183.06
2018-08-17T09:02:57.590Z,98178.63
2018-08-17T09:05:25.960Z,98172.87
2018-08-17T09:07:54.547Z,98183.48
2018-08-17T09:10:23.341Z,98171.06
2018-08-17T09:12:51.753Z,98177.38
2018-08-17T09:15:20.170Z,98188.83
2018-08-17T09:17:48.442Z,98175.65
2018-08-17T09:20:17.413Z,98183.44
2018-08-17T09:22:45.686Z,98184.56
2018-08-17T09:25:14.147Z,98183.62
2018-08-17T09:27:42.510Z,98183.01
2018-08-17T09:30:14.434Z,98185.30
2018-08-17T09:32:42.696Z,98180.67
2018-08-17T09:35:12.445Z,98179.98
2018-08-17T09:37:40.992Z,98179.80
2018-08-17T09:40:10.343Z,98179.83
2018-08-17T09:42:38.792Z,98173.16
2018-08-17T09:45:09.191Z,98185.27
2018-08-17T09:47:37.833Z,98177.24
2018-08-17T09:50:08.533Z,98178.08
2018-08-17T09:52:37.160Z,98176.49
2018-08-17T09:55:05.547Z,98171.43
2018-08-17T09:57:33.907Z,98168.70
2018-08-17T10:00:03.332Z,98160.12
2018-08-17T10:02:36.931Z,98161.51
2018-08-17T10:05:10.701Z,98161.95
2018-08-17T10:07:45.087Z,98164.61
2018-08-17T10:10:17.833Z,98171.61
2018-08-17T10:12:48.583Z,98167.44
2018-08-17T10:15:16.982Z,98174.04
2018-08-17T10:17:45.323Z,98163.30
2018-08-17T10:20:16.464Z,98163.10
2018-08-17T10:22:45.456Z,98158.84
2018-08-17T10:25:19.305Z,98153.12
2018-08-17T10:27:49.934Z,98151.86
2018-08-17T10:30:19.427Z,98149.72
2018-08-17T10:32:58.171Z,98150.70
2018-08-17T10:35:28.069Z,98153.15
2018-08-17T10:37:59.592Z,98160.80
2018-08-17T10:40:28.379Z,98160.74
2018-08-17T10:42:58.721Z,98154.55
2018-08-17T10:45:29.535Z,98163.66
2018-08-17T10:47:58.463Z,98162.66
2018-08-17T10:50:28.530Z,98152.07
2018-08-17T10:52:59.188Z,98154.63
2018-08-17T10:55:35.630Z,98157.31
2018-08-17T10:58:04.585Z,98150.20
2018-08-17T11:00:32.938Z,98155.65
2018-08-17T11:03:01.325Z,98154.77
2018-08-17T11:05:29.673Z,98151.16
2018-08-17T11:07:58.046Z,98139.83
2018-08-17T11:10:26.434Z,98149.02
2018-08-17T11:12:54.766Z,98151.58
2018-08-17T11:15:23.278Z,98139.52
2018-08-17T11:17:51.683Z,98141.86
2018-08-17T11:20:20.110Z,98135.66
2018-08-17T11:22:48.512Z,98130.86
2018-08-17T11:25:17.752Z,98124.07
2018-08-17T11:27:46.157Z,98128.45
2018-08-17T11:30:15.407Z,98128.65
2018-08-17T11:32:43.807Z,98133.52
2018-08-17T11:35:12.183Z,98133.24
2018-08-17T11:37:40.720Z,98131.53
2018-08-17T11:40:10.308Z,98128.47
2018-08-17T11:42:45.153Z,98125.81
2018-08-17T11:45:16.958Z,98133.50
2018-08-17T11:47:45.785Z,98136.42
2018-08-17T11:50:18.586Z,98130.77
2018-08-17T11:52:50.984Z,98139.58
2018-08-17T11:55:20.133Z,98144.87
2018-08-17T11:57:48.643Z,98147.27
2018-08-17T12:00:17.253Z,98148.48
2018-08-17T12:02:46.027Z,98153.96
2018-08-17T12:05:14.452Z,98154.28
2018-08-17T12:07:45.133Z,98148.33
2018-08-17T12:10:13.574Z,98144.00
2018-08-17T12:12:42.797Z,98154.02
2018-08-17T12:15:11.989Z,98154.74
2018-08-17T12:17:40.396Z,98150.09
2018-08-17T12:20:08.856Z,98146.98
2018-08-17T12:22:37.320Z,98142.45
2018-08-17T12:25:07.056Z,98143.13
2018-08-17T12:27:35.341Z,98141.72
2018-08-17T12:30:04.005Z,98142.64
2018-08-17T12:32:32.348Z,98141.02
2018-08-17T12:35:00.679Z,98139.05
2018-08-17T12:37:29.123Z,98129.67
2018-08-17T12:39:57.662Z,98128.83
2018-08-17T12:42:26.307Z,98128.78
2018-08-17T12:45:02.313Z,98130.61
2018-08-17T12:47:31.512Z,98128.11
2018-08-17T12:50:00.111Z,98129.16
2018-08-17T12:52:28.605Z,98121.94
2018-08-17T12:54:56.903Z,98119.01
2018-08-17T12:57:29.607Z,98129.11
2018-08-17T12:59:58.027Z,98132.34
2018-08-17T13:02:26.454Z,98129.75
2018-08-17T13:04:54.785Z,98134.47
2018-08-17T13:07:23.207Z,98133.14
2018-08-17T13:09:54.091Z,98139.14
2018-08-17T13:12:22.464Z,98137.66
2018-08-17T13:14:52.188Z,98136.27
2018-08-17T13:17:20.901Z,98136.47
2018-08-17T13:19:49.226Z,98134.27
2018-08-17T13:22:17.649Z,98128.28
2018-08-17T13:24:46.086Z,98128.87
2018-08-17T13:27:15.170Z,98129.06
2018-08-17T13:29:43.643Z,98131.41
2018-08-17T13:32:12.279Z,98134.06
2018-08-17T13:34:40.727Z,98135.52
2018-08-17T13:37:09.068Z,98135.88
2018-08-17T13:39:37.465Z,98122.43
2018-08-17T13:42:06.139Z,98126.91
2018-08-17T13:44:34.515Z,98132.08
2018-08-17T13:47:02.908Z,98129.12
2018-08-17T13:49:32.143Z,98125.34
2018-08-17T13:52:00.464Z,98120.46
2018-08-17T13:54:29.548Z,98111.73
2018-08-17T13:56:57.943Z,98118.27
2018-08-17T13:59:26.317Z,98106.13
2018-08-17T14:01:54.701Z,98108.11
2018-08-17T14:04:23.143Z,98112.33
2018-08-17T14:06:51.572Z,98120.19
2018-08-17T14:09:20.000Z,98115.66
2018-08-17T14:11:48.413Z,98115.43
2018-08-17T14:14:16.781Z,98110.56
2018-08-17T14:16:45.193Z,98113.27
2018-08-17T14:19:14.684Z,98103.89
2018-08-17T14:21:43.072Z,98107.91
2018-08-17T14:24:11.448Z,98114.06
2018-08-17T14:26:39.825Z,98110.69
2018-08-17T14:29:08.238Z,98107.69
2018-08-17T14:31:36.670Z,98107.94
2018-08-17T14:34:05.022Z,98097.05
2018-08-17T14:36:33.400Z,98101.45
2018-08-17T14:39:01.822Z,98102.64
2018-08-17T14:41:30.190Z,98110.47
2018-08-17T14:43:58.667Z,98109.16
2018-08-17T14:46:27.139Z,98109.09
2018-08-17T14:48:55.431Z,98106.31
2018-08-17T14:51:23.789Z,98107.91
2018-08-17T14:53:52.126Z,98112.80
2018-08-17T14:56:20.479Z,98110.16
2018-08-17T14:58:48.949Z,98105.84
2018-08-17T15:01:17.318Z,98112.80
2018-08-17T15:03:45.765Z,98101.64
2018-08-17T15:06:14.179Z,98105.94
2018-08-17T15:08:42.612Z,98107.65
2018-08-17T15:11:11.059Z,98109.94
2018-08-17T15:13:39.528Z,98105.38
2018-08-17T15:16:07.817Z,98107.28
2018-08-17T15:18:36.168Z,98117.97
2018-08-17T15:21:04.580Z,98112.42
2018-08-17T15:23:33.097Z,98107.70
2018-08-17T15:26:01.508Z,98107.39
2018-08-17T15:28:29.824Z,98109.92
2018-08-17T15:30:58.868Z,98110.78
2018-08-17T15:33:27.894Z,98111.42
2018-08-17T15:35:56.350Z,98102.52
2018-08-17T15:38:24.685Z,98106.98
2018-08-17T15:40:53.098Z,98102.27
2018-08-17T15:43:21.479Z,98105.69
2018-08-17T15:45:50.411Z,98099.61
2018-08-17T15:48:19.204Z,98100.41
2018-08-17T15:50:47.719Z,98108.84
2018-08-17T15:53:16.170Z,98106.19
2018-08-17T15:55:44.813Z,98103.83
2018-08-17T15:58:13.146Z,98111.91
2018-08-17T16:00:41.983Z,98105.23
2018-08-17T16:03:10.419Z,98110.41
2018-08-17T16:05:38.859Z,98107.11
2018-08-17T16:08:07.331Z,98107.47
2018-08-17T16:10:35.684Z,98117.72
2018-08-17T16:13:04.125Z,98114.79
2018-08-17T16:15:32.437Z,98118.92
2018-08-17T16:18:01.009Z,98110.16
2018-08-17T16:20:29.349Z,98125.86
2018-08-17T16:22:57.696Z,98122.70
2018-08-17T16:25:26.036Z,98120.32
2018-08-17T16:27:54.534Z,98123.30
2018-08-17T16:30:22.994Z,98124.38
2018-08-17T16:32:51.384Z,98129.61
2018-08-17T16:35:19.775Z,98134.08
2018-08-17T16:37:48.951Z,98136.20
2018-08-17T16:40:17.421Z,98133.36
2018-08-17T16:42:49.400Z,98127.10
2018-08-17T16:45:19.030Z,98131.80
2018-08-17T16:47:47.439Z,98134.61
2018-08-17T16:50:15.793Z,98134.80
2018-08-17T16:52:44.409Z,98136.44
2018-08-17T16:55:12.854Z,98135.77
2018-08-17T16:57:41.368Z,98138.53
2018-08-17T17:00:11.042Z,98136.50
2018-08-17T17:02:40.386Z,98135.66
2018-08-17T17:05:09.182Z,98144.51
2018-08-17T17:07:37.642Z,98144.83
2018-08-17T17:10:08.277Z,98144.72
2018-08-17T17:12:36.835Z,98151.72
2018-08-17T17:15:19.879Z,98151.84
2018-08-17T17:18:03.514Z,98152.56
2018-08-17T17:20:36.095Z,98156.62
2018-08-17T17:23:06.412Z,98160.03
2018-08-17T17:25:34.806Z,98167.08
2018-08-17T17:28:03.243Z,98168.95
2018-08-17T17:30:42.060Z,98165.38
2018-08-17T17:33:11.181Z,98174.38
2018-08-17T17:35:40.702Z,98180.33
2018-08-17T17:38:09.679Z,98179.30
2018-08-17T17:40:38.182Z,98185.88
2018-08-17T17:43:06.958Z,98193.03
2018-08-17T17:45:35.808Z,98193.06
2018-08-17T17:48:04.297Z,98198.68
2018-08-17T17:50:32.770Z,98204.10
2018-08-17T17:53:02.046Z,98209.19
2018-08-17T17:55:40.635Z,98216.25
2018-08-17T17:58:09.886Z,98217.39
2018-08-17T18:00:38.286Z,98217.54
2018-08-17T18:03:07.519Z,98226.56
2018-08-17T18:05:35.919Z,98223.30
2018-08-17T18:08:09.563Z,98233.70
2018-08-17T18:10:44.993Z,98232.39
2018-08-17T18:13:13.351Z,98240.89
2018-08-17T18:15:41.767Z,98249.78
2018-08-17T18:18:10.326Z,98251.23
2018-08-17T18:20:38.813Z,98254.23
2018-08-17T18:23:07.733Z,98258.14
2018-08-17T18:25:36.195Z,98256.50
2018-08-17T18:28:05.263Z,98257.05
2018-08-17T18:30:33.713Z,98264.63
2018-08-17T18:33:02.078Z,98266.42
2018-08-17T18:35:30.468Z,98266.17
2018-08-17T18:37:58.891Z,98276.59
2018-08-17T18:40:27.246Z,98283.63
2018-08-17T18:42:55.641Z,98288.59
2018-08-17T18:45:24.036Z,98299.22
2018-08-17T18:47:52.542Z,98303.86
2018-08-17T18:50:20.889Z,98320.09
2018-08-17T18:52:49.413Z,98317.02
2018-08-17T18:55:17.780Z,98318.48
2018-08-17T18:57:46.446Z,98322.75
2018-08-17T19:00:14.924Z,98332.04
2018-08-17T19:02:43.257Z,98331.97
2018-08-17T19:05:11.851Z,98343.05
2018-08-17T19:07:40.321Z,98340.98
2018-08-17T19:10:09.686Z,98346.03
2018-08-17T19:12:38.136Z,98350.64
2018-08-17T19:15:08.969Z,98358.12
2018-08-17T19:17:37.779Z,98371.03
2018-08-17T19:20:08.255Z,98370.30
2018-08-17T19:22:37.969Z,98371.92
2018-08-17T19:25:07.786Z,98376.63
2018-08-17T19:27:37.995Z,98381.67
2018-08-17T19:30:12.944Z,98390.08
2018-08-17T19:32:41.356Z,98381.54
2018-08-17T19:35:09.751Z,98377.81
2018-08-17T19:37:40.878Z,98381.91
2018-08-17T19:40:09.240Z,98386.86
2018-08-17T19:42:37.719Z,98393.89
2018-08-17T19:45:06.053Z,98394.03
2018-08-17T19:47:34.364Z,98386.88
2018-08-17T19:50:02.826Z,98400.02
2018-08-17T19:52:31.324Z,98405.72
2018-08-17T19:54:59.684Z,98402.33
2018-08-17T19:57:28.067Z,98405.55
2018-08-17T19:59:56.397Z,98413.30
2018-08-17T20:02:24.867Z,98401.19
2018-08-17T20:04:53.458Z,98409.07
2018-08-17T20:07:21.867Z,98409.52
2018-08-17T20:09:50.201Z,98411.16
2018-08-17T20:12:18.613Z,98408.70
2018-08-17T20:14:47.017Z,98409.26
2018-08-17T20:17:15.633Z,98406.06
2018-08-17T20:19:49.057Z,98409.06
2018-08-17T20:22:21.268Z,98418.33
2018-08-17T20:24:49.759Z,98418.52
2018-08-17T20:27:19.097Z,98416.30
2018-08-17T20:29:47.689Z,98412.75
2018-08-17T20:32:16.254Z,98424.77
2018-08-17T20:34:46.975Z,98424.53
2018-08-17T20:37:16.157Z,98427.19
2018-08-17T20:39:45.698Z,98437.75
2018-08-17T20:42:14.106Z,98439.66
2018-08-17T20:44:42.599Z,98443.44
2018-08-17T20:47:11.838Z,98443.97
2018-08-17T20:49:40.405Z,98448.86
2018-08-17T20:52:09.171Z,98452.55
2018-08-17T20:54:37.656Z,98454.23
2018-08-17T20:57:06.381Z,98447.70
2018-08-17T20:59:34.717Z,98456.28
2018-08-17T21:02:03.121Z,98464.52
2018-08-17T21:04:31.930Z,98467.02
2018-08-17T21:07:00.453Z,98466.02
2018-08-17T21:09:29.159Z,98470.16
2018-08-17T21:11:57.596Z,98477.00
2018-08-17T21:14:25.978Z,98486.44
2018-08-17T21:16:54.368Z,98485.75
2018-08-17T21:19:34.093Z,98493.31
2018-08-17T21:22:02.680Z,98512.36
2018-08-17T21:24:34.999Z,98507.54
2018-08-17T21:27:05.088Z,98520.28
2018-08-17T21:29:34.664Z,98529.11
2018-08-17T21:32:04.736Z,98555.77
2018-08-17T21:34:33.755Z,98547.38
2018-08-17T21:37:02.847Z,98552.34
2018-08-17T21:39:32.785Z,98560.02
2018-08-17T21:42:01.173Z,98556.05
2018-08-17T21:44:29.637Z,98556.61
2018-08-17T21:47:02.608Z,98566.55
2018-08-17T21:49:31.057Z,98572.58
2018-08-17T21:52:01.233Z,98569.88
2018-08-17T21:54:30.310Z,98572.20
2018-08-17T21:57:00.107Z,98569.03
2018-08-17T21:59:32.928Z,98574.59
2018-08-17T22:02:02.477Z,98580.93
2018-08-17T22:04:31.319Z,98588.35
2018-08-17T22:07:03.139Z,98577.02
2018-08-17T22:09:38.876Z,98589.02
2018-08-17T22:12:08.238Z,98598.69
2018-08-17T22:14:37.028Z,98600.64
2018-08-17T22:17:05.898Z,98603.72
2018-08-17T22:19:39.835Z,98610.28
2018-08-17T22:22:10.255Z,98622.05
2018-08-17T22:24:43.923Z,98631.67
2018-08-17T22:27:15.327Z,98629.53
2018-08-17T22:29:45.442Z,98630.90
2018-08-17T22:32:13.802Z,98634.34
2018-08-17T22:34:42.206Z,98628.59
2018-08-17T22:37:10.622Z,98628.69
2018-08-17T22:39:39.043Z,98623.05
2018-08-17T22:42:07.892Z,98621.66
2018-08-17T22:44:36.310Z,98617.38
2018-08-17T22:47:15.155Z,98614.80
2018-08-17T22:49:43.585Z,98612.48
2018-08-17T22:52:12.250Z,98601.41
2018-08-17T22:54:44.891Z,98590.50
2018-08-17T22:57:13.277Z,98590.53
2018-08-17T22:59:41.930Z,98591.67
2018-08-17T23:02:10.532Z,98586.20
2018-08-17T23:04:38.875Z,98577.39
2018-08-17T23:07:07.314Z,98587.13
2018-08-17T23:09:35.762Z,98587.27
2018-08-17T23:12:04.385Z,98582.28
2018-08-17T23:14:32.849Z,98576.16
2018-08-17T23:17:01.310Z,98568.47
2018-08-17T23:19:29.828Z,98563.98
2018-08-17T23:21:58.304Z,98564.61
2018-08-17T23:24:26.924Z,98558.23
2018-08-17T23:26:55.265Z,98545.78
2018-08-17T23:29:23.694Z,98557.14
2018-08-17T23:31:52.086Z,98551.44
2018-08-17T23:34:20.616Z,98543.40
2018-08-17T23:36:48.970Z,98569.30
2018-08-17T23:39:17.344Z,98566.78
2018-08-17T23:41:45.726Z,98560.13
2018-08-17T23:44:14.247Z,98563.17
2018-08-17T23:46:42.841Z,98562.06
2018-08-17T23:49:11.190Z,98564.02
2018-08-17T23:51:39.716Z,98564.50
2018-08-17T23:54:08.088Z,98559.19
2018-08-17T23:56:36.412Z,98565.44
2018-08-17T23:59:05.549Z,98564.74
